sensor_id;sensor_type;location;lat;lon;timestamp;P1;durP1;ratioP1;P2;durP2;ratioP2
6580;SDS011;3324;50.796;7.228;2022-07-23T00:01:29;7.20;;;7.10;;
6580;SDS011;3324;50.796;7.228;2022-07-23T00:03:55;7.50;;;7.40;;
6580;SDS011;3324;50.796;7.228;2022-07-23T00:06:22;8.60;;;8.30;;
6580;SDS011;3324;50.796;7.228;2022-07-23T00:08:48;8.70;;;8.40;;
6580;SDS011;3324;50.796;7.228;2022-07-23T00:11:15;9.10;;;8.70;;
6580;SDS011;3324;50.796;7.228;2022-07-23T00:13:41;9.02;;;8.63;;
6580;SDS011;3324;50.796;7.228;2022-07-23T00:16:07;8.00;;;7.90;;
6580;SDS011;3324;50.796;7.228;2022-07-23T00:18:32;8.00;;;7.90;;
6580;SDS011;3324;50.796;7.228;2022-07-23T00:20:58;8.10;;;8.00;;
6580;SDS011;3324;50.796;7.228;2022-07-23T00:23:24;8.90;;;8.50;;
6580;SDS011;3324;50.796;7.228;2022-07-23T00:25:50;7.80;;;7.70;;
6580;SDS011;3324;50.796;7.228;2022-07-23T00:28:17;7.20;;;7.10;;
6580;SDS011;3324;50.796;7.228;2022-07-23T00:30:43;7.15;;;7.05;;
6580;SDS011;3324;50.796;7.228;2022-07-23T00:33:10;7.10;;;7.00;;
6580;SDS011;3324;50.796;7.228;2022-07-23T00:35:36;7.07;;;6.97;;
6580;SDS011;3324;50.796;7.228;2022-07-23T00:38:06;6.70;;;6.60;;
6580;SDS011;3324;50.796;7.228;2022-07-23T00:40:34;6.30;;;6.20;;
6580;SDS011;3324;50.796;7.228;2022-07-23T00:43:00;7.00;;;6.90;;
6580;SDS011;3324;50.796;7.228;2022-07-23T00:45:26;8.10;;;7.80;;
6580;SDS011;3324;50.796;7.228;2022-07-23T00:47:52;7.30;;;7.20;;
6580;SDS011;3324;50.796;7.228;2022-07-23T00:50:17;7.30;;;7.20;;
6580;SDS011;3324;50.796;7.228;2022-07-23T00:52:43;7.30;;;7.20;;
6580;SDS011;3324;50.796;7.228;2022-07-23T00:55:10;7.90;;;7.60;;
6580;SDS011;3324;50.796;7.228;2022-07-23T00:57:37;6.60;;;6.50;;
6580;SDS011;3324;50.796;7.228;2022-07-23T01:00:05;7.30;;;7.20;;
6580;SDS011;3324;50.796;7.228;2022-07-23T01:02:32;8.30;;;8.00;;
6580;SDS011;3324;50.796;7.228;2022-07-23T01:04:59;7.30;;;7.20;;
6580;SDS011;3324;50.796;7.228;2022-07-23T01:07:25;9.00;;;8.40;;
6580;SDS011;3324;50.796;7.228;2022-07-23T01:09:51;8.30;;;8.00;;
6580;SDS011;3324;50.796;7.228;2022-07-23T01:12:17;7.20;;;7.10;;
6580;SDS011;3324;50.796;7.228;2022-07-23T01:14:43;7.53;;;7.43;;
6580;SDS011;3324;50.796;7.228;2022-07-23T01:17:09;7.20;;;7.10;;
6580;SDS011;3324;50.796;7.228;2022-07-23T01:19:35;8.10;;;7.80;;
6580;SDS011;3324;50.796;7.228;2022-07-23T01:22:01;7.00;;;6.90;;
6580;SDS011;3324;50.796;7.228;2022-07-23T01:24:30;7.20;;;7.10;;
6580;SDS011;3324;50.796;7.228;2022-07-23T01:26:55;7.50;;;7.40;;
6580;SDS011;3324;50.796;7.228;2022-07-23T01:29:21;8.57;;;8.27;;
6580;SDS011;3324;50.796;7.228;2022-07-23T01:31:47;7.30;;;7.20;;
6580;SDS011;3324;50.796;7.228;2022-07-23T01:34:13;7.70;;;7.60;;
6580;SDS011;3324;50.796;7.228;2022-07-23T01:36:38;7.70;;;7.60;;
6580;SDS011;3324;50.796;7.228;2022-07-23T01:39:05;7.80;;;7.70;;
6580;SDS011;3324;50.796;7.228;2022-07-23T01:41:31;7.50;;;7.40;;
6580;SDS011;3324;50.796;7.228;2022-07-23T01:43:57;8.60;;;8.30;;
6580;SDS011;3324;50.796;7.228;2022-07-23T01:46:23;8.53;;;8.20;;
6580;SDS011;3324;50.796;7.228;2022-07-23T01:48:49;7.70;;;7.60;;
6580;SDS011;3324;50.796;7.228;2022-07-23T01:51:14;7.60;;;7.50;;
6580;SDS011;3324;50.796;7.228;2022-07-23T01:53:40;8.20;;;7.90;;
6580;SDS011;3324;50.796;7.228;2022-07-23T01:56:06;7.70;;;7.60;;
6580;SDS011;3324;50.796;7.228;2022-07-23T01:58:31;7.30;;;7.20;;
6580;SDS011;3324;50.796;7.228;2022-07-23T02:00:57;8.50;;;8.20;;
6580;SDS011;3324;50.796;7.228;2022-07-23T02:03:23;8.30;;;8.00;;
6580;SDS011;3324;50.796;7.228;2022-07-23T02:05:49;7.80;;;7.70;;
6580;SDS011;3324;50.796;7.228;2022-07-23T02:08:15;7.00;;;6.90;;
6580;SDS011;3324;50.796;7.228;2022-07-23T02:10:41;7.40;;;7.30;;
6580;SDS011;3324;50.796;7.228;2022-07-23T02:13:07;8.40;;;8.10;;
6580;SDS011;3324;50.796;7.228;2022-07-23T02:15:33;8.30;;;8.00;;
6580;SDS011;3324;50.796;7.228;2022-07-23T02:17:59;7.40;;;7.30;;
6580;SDS011;3324;50.796;7.228;2022-07-23T02:20:25;7.30;;;7.20;;
6580;SDS011;3324;50.796;7.228;2022-07-23T02:22:50;7.50;;;7.40;;
6580;SDS011;3324;50.796;7.228;2022-07-23T02:25:16;8.70;;;8.40;;
6580;SDS011;3324;50.796;7.228;2022-07-23T02:27:42;7.90;;;7.80;;
6580;SDS011;3324;50.796;7.228;2022-07-23T02:30:08;7.50;;;7.40;;
6580;SDS011;3324;50.796;7.228;2022-07-23T02:32:34;9.10;;;8.70;;
6580;SDS011;3324;50.796;7.228;2022-07-23T02:35:00;8.30;;;8.00;;
6580;SDS011;3324;50.796;7.228;2022-07-23T02:37:26;8.30;;;8.00;;
6580;SDS011;3324;50.796;7.228;2022-07-23T02:39:52;7.90;;;7.80;;
6580;SDS011;3324;50.796;7.228;2022-07-23T02:42:18;8.00;;;7.90;;
6580;SDS011;3324;50.796;7.228;2022-07-23T02:44:43;7.90;;;7.80;;
6580;SDS011;3324;50.796;7.228;2022-07-23T02:47:09;8.90;;;8.50;;
6580;SDS011;3324;50.796;7.228;2022-07-23T02:49:35;7.40;;;7.30;;
6580;SDS011;3324;50.796;7.228;2022-07-23T02:52:00;7.65;;;7.55;;
6580;SDS011;3324;50.796;7.228;2022-07-23T02:54:26;8.50;;;8.10;;
6580;SDS011;3324;50.796;7.228;2022-07-23T02:56:52;7.60;;;7.50;;
6580;SDS011;3324;50.796;7.228;2022-07-23T02:59:18;8.10;;;8.00;;
6580;SDS011;3324;50.796;7.228;2022-07-23T03:01:44;7.80;;;7.70;;
6580;SDS011;3324;50.796;7.228;2022-07-23T03:04:10;7.60;;;7.50;;
6580;SDS011;3324;50.796;7.228;2022-07-23T03:06:36;8.37;;;8.07;;
6580;SDS011;3324;50.796;7.228;2022-07-23T03:09:02;8.30;;;8.00;;
6580;SDS011;3324;50.796;7.228;2022-07-23T03:11:29;8.10;;;8.00;;
6580;SDS011;3324;50.796;7.228;2022-07-23T03:13:54;8.10;;;8.00;;
6580;SDS011;3324;50.796;7.228;2022-07-23T03:16:20;7.60;;;7.50;;
6580;SDS011;3324;50.796;7.228;2022-07-23T03:18:45;8.60;;;8.30;;
6580;SDS011;3324;50.796;7.228;2022-07-23T03:21:11;8.10;;;8.00;;
6580;SDS011;3324;50.796;7.228;2022-07-23T03:23:37;7.70;;;7.60;;
6580;SDS011;3324;50.796;7.228;2022-07-23T03:26:03;7.50;;;7.40;;
6580;SDS011;3324;50.796;7.228;2022-07-23T03:28:29;8.80;;;8.40;;
6580;SDS011;3324;50.796;7.228;2022-07-23T03:30:54;7.70;;;7.60;;
6580;SDS011;3324;50.796;7.228;2022-07-23T03:33:20;7.50;;;7.40;;
6580;SDS011;3324;50.796;7.228;2022-07-23T03:35:46;7.90;;;7.80;;
6580;SDS011;3324;50.796;7.228;2022-07-23T03:38:13;8.50;;;8.20;;
6580;SDS011;3324;50.796;7.228;2022-07-23T03:40:39;8.60;;;8.30;;
6580;SDS011;3324;50.796;7.228;2022-07-23T03:43:04;7.60;;;7.50;;
6580;SDS011;3324;50.796;7.228;2022-07-23T03:45:30;7.70;;;7.60;;
6580;SDS011;3324;50.796;7.228;2022-07-23T03:47:56;7.50;;;7.40;;
6580;SDS011;3324;50.796;7.228;2022-07-23T03:50:22;7.40;;;7.30;;
6580;SDS011;3324;50.796;7.228;2022-07-23T03:52:48;8.50;;;8.20;;
6580;SDS011;3324;50.796;7.228;2022-07-23T03:55:14;7.80;;;7.60;;
6580;SDS011;3324;50.796;7.228;2022-07-23T03:57:40;7.55;;;7.45;;
6580;SDS011;3324;50.796;7.228;2022-07-23T04:00:06;7.50;;;7.40;;
6580;SDS011;3324;50.796;7.228;2022-07-23T04:02:34;8.20;;;7.90;;
6580;SDS011;3324;50.796;7.228;2022-07-23T04:05:04;7.18;;;7.07;;
6580;SDS011;3324;50.796;7.228;2022-07-23T04:07:30;7.95;;;7.65;;
6580;SDS011;3324;50.796;7.228;2022-07-23T04:09:56;7.20;;;7.10;;
6580;SDS011;3324;50.796;7.228;2022-07-23T04:12:22;7.03;;;6.93;;
6580;SDS011;3324;50.796;7.228;2022-07-23T04:14:48;7.00;;;6.90;;
6580;SDS011;3324;50.796;7.228;2022-07-23T04:17:13;8.13;;;7.83;;
6580;SDS011;3324;50.796;7.228;2022-07-23T04:19:39;7.20;;;7.10;;
6580;SDS011;3324;50.796;7.228;2022-07-23T04:22:12;7.20;;;7.10;;
6580;SDS011;3324;50.796;7.228;2022-07-23T04:24:38;7.10;;;7.00;;
6580;SDS011;3324;50.796;7.228;2022-07-23T04:27:04;6.90;;;6.80;;
6580;SDS011;3324;50.796;7.228;2022-07-23T04:29:30;7.30;;;7.20;;
6580;SDS011;3324;50.796;7.228;2022-07-23T04:31:56;6.90;;;6.80;;
6580;SDS011;3324;50.796;7.228;2022-07-23T04:34:22;8.15;;;7.85;;
6580;SDS011;3324;50.796;7.228;2022-07-23T04:36:47;7.10;;;7.00;;
6580;SDS011;3324;50.796;7.228;2022-07-23T04:39:13;7.30;;;7.20;;
6580;SDS011;3324;50.796;7.228;2022-07-23T04:41:39;7.50;;;7.40;;
6580;SDS011;3324;50.796;7.228;2022-07-23T04:44:05;8.10;;;7.80;;
6580;SDS011;3324;50.796;7.228;2022-07-23T04:46:31;7.60;;;7.50;;
6580;SDS011;3324;50.796;7.228;2022-07-23T04:48:57;7.70;;;7.60;;
6580;SDS011;3324;50.796;7.228;2022-07-23T04:51:22;7.75;;;7.65;;
6580;SDS011;3324;50.796;7.228;2022-07-23T04:53:48;8.50;;;8.20;;
6580;SDS011;3324;50.796;7.228;2022-07-23T04:56:14;7.80;;;7.70;;
6580;SDS011;3324;50.796;7.228;2022-07-23T04:58:40;7.90;;;7.80;;
6580;SDS011;3324;50.796;7.228;2022-07-23T05:01:06;8.00;;;7.90;;
6580;SDS011;3324;50.796;7.228;2022-07-23T05:03:31;8.80;;;8.50;;
6580;SDS011;3324;50.796;7.228;2022-07-23T05:05:57;8.70;;;8.40;;
6580;SDS011;3324;50.796;7.228;2022-07-23T05:08:23;8.40;;;8.20;;
6580;SDS011;3324;50.796;7.228;2022-07-23T05:10:48;7.90;;;7.80;;
6580;SDS011;3324;50.796;7.228;2022-07-23T05:13:15;8.40;;;8.10;;
6580;SDS011;3324;50.796;7.228;2022-07-23T05:15:41;8.75;;;8.40;;
6580;SDS011;3324;50.796;7.228;2022-07-23T05:18:07;8.10;;;8.00;;
6580;SDS011;3324;50.796;7.228;2022-07-23T05:20:33;8.00;;;7.90;;
6580;SDS011;3324;50.796;7.228;2022-07-23T05:22:59;8.00;;;7.90;;
6580;SDS011;3324;50.796;7.228;2022-07-23T05:25:24;9.00;;;8.60;;
6580;SDS011;3324;50.796;7.228;2022-07-23T05:27:50;8.60;;;8.40;;
6580;SDS011;3324;50.796;7.228;2022-07-23T05:30:15;8.60;;;8.40;;
6580;SDS011;3324;50.796;7.228;2022-07-23T05:32:41;8.40;;;8.20;;
6580;SDS011;3324;50.796;7.228;2022-07-23T05:35:07;9.30;;;8.90;;
6580;SDS011;3324;50.796;7.228;2022-07-23T05:37:33;8.40;;;8.20;;
6580;SDS011;3324;50.796;7.228;2022-07-23T05:40:02;8.00;;;7.90;;
6580;SDS011;3324;50.796;7.228;2022-07-23T05:42:31;10.00;;;9.40;;
6580;SDS011;3324;50.796;7.228;2022-07-23T05:44:56;9.10;;;8.70;;
6580;SDS011;3324;50.796;7.228;2022-07-23T05:47:22;8.35;;;8.20;;
6580;SDS011;3324;50.796;7.228;2022-07-23T05:49:48;8.50;;;8.30;;
6580;SDS011;3324;50.796;7.228;2022-07-23T05:52:13;8.60;;;8.30;;
6580;SDS011;3324;50.796;7.228;2022-07-23T05:54:39;8.30;;;8.10;;
6580;SDS011;3324;50.796;7.228;2022-07-23T05:57:04;8.57;;;8.37;;
6580;SDS011;3324;50.796;7.228;2022-07-23T05:59:30;9.40;;;9.00;;
6580;SDS011;3324;50.796;7.228;2022-07-23T06:01:56;8.50;;;8.30;;
6580;SDS011;3324;50.796;7.228;2022-07-23T06:04:21;8.50;;;8.30;;
6580;SDS011;3324;50.796;7.228;2022-07-23T06:06:47;9.30;;;8.90;;
6580;SDS011;3324;50.796;7.228;2022-07-23T06:09:13;8.63;;;8.43;;
6580;SDS011;3324;50.796;7.228;2022-07-23T06:11:39;8.80;;;8.60;;
6580;SDS011;3324;50.796;7.228;2022-07-23T06:14:05;8.70;;;8.50;;
6580;SDS011;3324;50.796;7.228;2022-07-23T06:16:31;8.70;;;8.50;;
6580;SDS011;3324;50.796;7.228;2022-07-23T06:18:56;9.40;;;9.00;;
6580;SDS011;3324;50.796;7.228;2022-07-23T06:21:22;8.60;;;8.40;;
6580;SDS011;3324;50.796;7.228;2022-07-23T06:23:48;8.60;;;8.40;;
6580;SDS011;3324;50.796;7.228;2022-07-23T06:26:14;9.50;;;9.10;;
6580;SDS011;3324;50.796;7.228;2022-07-23T06:28:39;8.80;;;8.60;;
6580;SDS011;3324;50.796;7.228;2022-07-23T06:31:05;8.80;;;8.60;;
6580;SDS011;3324;50.796;7.228;2022-07-23T06:33:31;8.90;;;8.70;;
6580;SDS011;3324;50.796;7.228;2022-07-23T06:35:56;9.70;;;9.20;;
6580;SDS011;3324;50.796;7.228;2022-07-23T06:38:22;8.80;;;8.60;;
6580;SDS011;3324;50.796;7.228;2022-07-23T06:40:47;8.90;;;8.70;;
6580;SDS011;3324;50.796;7.228;2022-07-23T06:43:13;10.40;;;9.90;;
6580;SDS011;3324;50.796;7.228;2022-07-23T06:45:39;9.60;;;9.30;;
6580;SDS011;3324;50.796;7.228;2022-07-23T06:48:04;9.40;;;9.10;;
6580;SDS011;3324;50.796;7.228;2022-07-23T06:50:32;9.30;;;9.00;;
6580;SDS011;3324;50.796;7.228;2022-07-23T06:52:57;9.60;;;9.30;;
6580;SDS011;3324;50.796;7.228;2022-07-23T06:55:23;10.60;;;10.00;;
6580;SDS011;3324;50.796;7.228;2022-07-23T06:57:49;9.80;;;9.50;;
6580;SDS011;3324;50.796;7.228;2022-07-23T07:00:15;9.80;;;9.50;;
6580;SDS011;3324;50.796;7.228;2022-07-23T07:02:40;10.20;;;9.70;;
6580;SDS011;3324;50.796;7.228;2022-07-23T07:05:06;9.90;;;9.60;;
6580;SDS011;3324;50.796;7.228;2022-07-23T07:07:32;9.25;;;8.95;;
6580;SDS011;3324;50.796;7.228;2022-07-23T07:09:58;9.25;;;8.95;;
6580;SDS011;3324;50.796;7.228;2022-07-23T07:12:24;10.60;;;10.00;;
6580;SDS011;3324;50.796;7.228;2022-07-23T07:14:49;9.70;;;9.40;;
6580;SDS011;3324;50.796;7.228;2022-07-23T07:17:15;9.70;;;9.40;;
6580;SDS011;3324;50.796;7.228;2022-07-23T07:19:41;10.40;;;9.90;;
6580;SDS011;3324;50.796;7.228;2022-07-23T07:22:07;10.80;;;10.20;;
6580;SDS011;3324;50.796;7.228;2022-07-23T07:24:32;10.40;;;10.00;;
6580;SDS011;3324;50.796;7.228;2022-07-23T07:26:58;9.60;;;9.30;;
6580;SDS011;3324;50.796;7.228;2022-07-23T07:29:23;10.80;;;10.20;;
6580;SDS011;3324;50.796;7.228;2022-07-23T07:34:15;10.00;;;9.70;;
6580;SDS011;3324;50.796;7.228;2022-07-23T07:36:40;10.00;;;9.70;;
6580;SDS011;3324;50.796;7.228;2022-07-23T07:39:08;10.73;;;10.13;;
6580;SDS011;3324;50.796;7.228;2022-07-23T07:41:35;10.35;;;9.95;;
6580;SDS011;3324;50.796;7.228;2022-07-23T07:44:01;10.90;;;10.30;;
6580;SDS011;3324;50.796;7.228;2022-07-23T07:46:26;10.20;;;9.80;;
6580;SDS011;3324;50.796;7.228;2022-07-23T07:48:52;9.80;;;9.50;;
6580;SDS011;3324;50.796;7.228;2022-07-23T07:51:18;10.83;;;10.23;;
6580;SDS011;3324;50.796;7.228;2022-07-23T07:53:44;10.90;;;10.30;;
6580;SDS011;3324;50.796;7.228;2022-07-23T07:56:09;10.10;;;9.70;;
6580;SDS011;3324;50.796;7.228;2022-07-23T07:58:35;10.30;;;9.90;;
6580;SDS011;3324;50.796;7.228;2022-07-23T08:01:01;10.80;;;10.20;;
6580;SDS011;3324;50.796;7.228;2022-07-23T08:03:27;10.30;;;9.90;;
6580;SDS011;3324;50.796;7.228;2022-07-23T08:05:53;9.30;;;9.00;;
6580;SDS011;3324;50.796;7.228;2022-07-23T08:08:18;11.30;;;10.60;;
6580;SDS011;3324;50.796;7.228;2022-07-23T08:10:44;10.20;;;9.80;;
6580;SDS011;3324;50.796;7.228;2022-07-23T08:13:12;10.75;;;10.25;;
6580;SDS011;3324;50.796;7.228;2022-07-23T08:15:42;11.00;;;10.40;;
6580;SDS011;3324;50.796;7.228;2022-07-23T08:18:08;11.70;;;11.00;;
6580;SDS011;3324;50.796;7.228;2022-07-23T08:20:34;11.20;;;10.50;;
6580;SDS011;3324;50.796;7.228;2022-07-23T08:23:04;10.70;;;10.20;;
6580;SDS011;3324;50.796;7.228;2022-07-23T08:25:41;10.60;;;10.10;;
6580;SDS011;3324;50.796;7.228;2022-07-23T08:28:08;11.80;;;11.10;;
6580;SDS011;3324;50.796;7.228;2022-07-23T08:30:35;11.00;;;10.50;;
6580;SDS011;3324;50.796;7.228;2022-07-23T08:33:03;11.10;;;10.60;;
6580;SDS011;3324;50.796;7.228;2022-07-23T08:35:33;10.50;;;10.00;;
6580;SDS011;3324;50.796;7.228;2022-07-23T08:38:01;11.40;;;10.90;;
6580;SDS011;3324;50.796;7.228;2022-07-23T08:40:29;11.50;;;10.90;;
6580;SDS011;3324;50.796;7.228;2022-07-23T08:42:57;10.20;;;9.70;;
6580;SDS011;3324;50.796;7.228;2022-07-23T08:45:23;10.20;;;9.80;;
6580;SDS011;3324;50.796;7.228;2022-07-23T08:47:51;11.00;;;10.50;;
6580;SDS011;3324;50.796;7.228;2022-07-23T08:50:19;11.65;;;10.95;;
6580;SDS011;3324;50.796;7.228;2022-07-23T08:52:45;11.88;;;11.18;;
6580;SDS011;3324;50.796;7.228;2022-07-23T08:55:13;12.20;;;11.60;;
6580;SDS011;3324;50.796;7.228;2022-07-23T08:57:40;11.30;;;10.80;;
6580;SDS011;3324;50.796;7.228;2022-07-23T09:00:06;11.85;;;11.25;;
6580;SDS011;3324;50.796;7.228;2022-07-23T09:02:38;12.27;;;11.48;;
6580;SDS011;3324;50.796;7.228;2022-07-23T09:05:05;12.30;;;11.50;;
6580;SDS011;3324;50.796;7.228;2022-07-23T09:07:31;12.70;;;11.90;;
6580;SDS011;3324;50.796;7.228;2022-07-23T09:10:06;11.60;;;11.00;;
6580;SDS011;3324;50.796;7.228;2022-07-23T09:12:34;11.90;;;11.20;;
6580;SDS011;3324;50.796;7.228;2022-07-23T09:15:07;11.20;;;10.70;;
6580;SDS011;3324;50.796;7.228;2022-07-23T09:17:40;11.93;;;11.20;;
6580;SDS011;3324;50.796;7.228;2022-07-23T09:20:10;11.30;;;10.80;;
6580;SDS011;3324;50.796;7.228;2022-07-23T09:22:38;11.20;;;10.70;;
6580;SDS011;3324;50.796;7.228;2022-07-23T09:25:12;12.10;;;11.50;;
6580;SDS011;3324;50.796;7.228;2022-07-23T09:30:19;11.95;;;11.35;;
6580;SDS011;3324;50.796;7.228;2022-07-23T09:33:06;12.10;;;11.50;;
6580;SDS011;3324;50.796;7.228;2022-07-23T09:38:19;12.10;;;11.50;;
6580;SDS011;3324;50.796;7.228;2022-07-23T09:40:46;12.10;;;11.50;;
6580;SDS011;3324;50.796;7.228;2022-07-23T09:43:30;13.40;;;12.50;;
6580;SDS011;3324;50.796;7.228;2022-07-23T09:46:16;12.90;;;12.20;;
6580;SDS011;3324;50.796;7.228;2022-07-23T09:48:46;13.30;;;12.60;;
6580;SDS011;3324;50.796;7.228;2022-07-23T09:51:12;12.50;;;11.80;;
6580;SDS011;3324;50.796;7.228;2022-07-23T09:53:42;13.00;;;12.30;;
6580;SDS011;3324;50.796;7.228;2022-07-23T09:56:07;14.80;;;13.70;;
6580;SDS011;3324;50.796;7.228;2022-07-23T09:58:34;13.65;;;12.85;;
6580;SDS011;3324;50.796;7.228;2022-07-23T10:01:09;14.00;;;13.20;;
6580;SDS011;3324;50.796;7.228;2022-07-23T10:03:35;13.80;;;13.00;;
6580;SDS011;3324;50.796;7.228;2022-07-23T10:06:01;14.30;;;13.30;;
6580;SDS011;3324;50.796;7.228;2022-07-23T10:08:27;14.67;;;13.27;;
6580;SDS011;3324;50.796;7.228;2022-07-23T10:10:55;15.00;;;13.90;;
6580;SDS011;3324;50.796;7.228;2022-07-23T10:13:20;13.60;;;12.80;;
6580;SDS011;3324;50.796;7.228;2022-07-23T10:15:49;13.90;;;13.10;;
6580;SDS011;3324;50.796;7.228;2022-07-23T10:18:15;13.87;;;13.07;;
6580;SDS011;3324;50.796;7.228;2022-07-23T10:20:41;14.80;;;13.70;;
6580;SDS011;3324;50.796;7.228;2022-07-23T10:29:05;14.90;;;13.90;;
6580;SDS011;3324;50.796;7.228;2022-07-23T10:39:36;14.60;;;13.70;;
6580;SDS011;3324;50.796;7.228;2022-07-23T10:42:13;14.30;;;13.40;;
6580;SDS011;3324;50.796;7.228;2022-07-23T10:44:40;15.00;;;13.90;;
6580;SDS011;3324;50.796;7.228;2022-07-23T10:47:11;13.60;;;12.80;;
6580;SDS011;3324;50.796;7.228;2022-07-23T10:49:43;14.75;;;13.85;;
6580;SDS011;3324;50.796;7.228;2022-07-23T10:52:15;16.00;;;14.50;;
6580;SDS011;3324;50.796;7.228;2022-07-23T10:54:43;14.90;;;13.90;;
6580;SDS011;3324;50.796;7.228;2022-07-23T10:57:10;14.83;;;13.83;;
6580;SDS011;3324;50.796;7.228;2022-07-23T11:02:31;14.60;;;13.70;;
6580;SDS011;3324;50.796;7.228;2022-07-23T11:05:03;14.80;;;13.80;;
6580;SDS011;3324;50.796;7.228;2022-07-23T11:07:30;15.57;;;14.57;;
6580;SDS011;3324;50.796;7.228;2022-07-23T11:09:56;15.70;;;14.60;;
6580;SDS011;3324;50.796;7.228;2022-07-23T11:17:28;16.30;;;15.00;;
6580;SDS011;3324;50.796;7.228;2022-07-23T11:22:40;16.90;;;15.30;;
6580;SDS011;3324;50.796;7.228;2022-07-23T11:25:11;14.60;;;13.70;;
6580;SDS011;3324;50.796;7.228;2022-07-23T11:27:43;17.27;;;15.57;;
6580;SDS011;3324;50.796;7.228;2022-07-23T11:30:10;15.90;;;14.80;;
6580;SDS011;3324;50.796;7.228;2022-07-23T11:38:07;15.30;;;14.30;;
6580;SDS011;3324;50.796;7.228;2022-07-23T11:40:38;17.30;;;15.60;;
6580;SDS011;3324;50.796;7.228;2022-07-23T11:43:05;15.60;;;14.50;;
6580;SDS011;3324;50.796;7.228;2022-07-23T11:48:02;15.13;;;14.13;;
6580;SDS011;3324;50.796;7.228;2022-07-23T11:50:29;15.40;;;14.40;;
6580;SDS011;3324;50.796;7.228;2022-07-23T11:52:55;16.00;;;14.80;;
6580;SDS011;3324;50.796;7.228;2022-07-23T11:55:21;15.73;;;14.63;;
6580;SDS011;3324;50.796;7.228;2022-07-23T12:00:14;15.00;;;14.00;;
6580;SDS011;3324;50.796;7.228;2022-07-23T12:02:48;15.00;;;14.00;;
6580;SDS011;3324;50.796;7.228;2022-07-23T12:05:22;15.30;;;14.30;;
6580;SDS011;3324;50.796;7.228;2022-07-23T12:07:50;16.00;;;14.90;;
6580;SDS011;3324;50.796;7.228;2022-07-23T12:10:32;15.60;;;14.50;;
6580;SDS011;3324;50.796;7.228;2022-07-23T12:13:10;14.95;;;13.85;;
6580;SDS011;3324;50.796;7.228;2022-07-23T12:15:42;14.70;;;13.70;;
6580;SDS011;3324;50.796;7.228;2022-07-23T12:18:14;15.82;;;14.73;;
6580;SDS011;3324;50.796;7.228;2022-07-23T12:20:42;15.45;;;14.35;;
6580;SDS011;3324;50.796;7.228;2022-07-23T12:23:11;16.92;;;15.63;;
6580;SDS011;3324;50.796;7.228;2022-07-23T12:25:39;18.40;;;16.50;;
6580;SDS011;3324;50.796;7.228;2022-07-23T12:28:17;17.08;;;15.80;;
6580;SDS011;3324;50.796;7.228;2022-07-23T12:33:11;16.90;;;15.50;;
6580;SDS011;3324;50.796;7.228;2022-07-23T12:35:41;16.85;;;15.60;;
6580;SDS011;3324;50.796;7.228;2022-07-23T12:38:13;17.00;;;15.60;;
6580;SDS011;3324;50.796;7.228;2022-07-23T12:43:24;16.30;;;15.10;;
6580;SDS011;3324;50.796;7.228;2022-07-23T12:45:56;17.23;;;15.82;;
6580;SDS011;3324;50.796;7.228;2022-07-23T12:48:28;17.93;;;16.43;;
6580;SDS011;3324;50.796;7.228;2022-07-23T12:51:08;17.15;;;15.85;;
6580;SDS011;3324;50.796;7.228;2022-07-23T12:53:43;17.20;;;15.70;;
6580;SDS011;3324;50.796;7.228;2022-07-23T12:56:10;17.60;;;15.80;;
6580;SDS011;3324;50.796;7.228;2022-07-23T12:58:39;16.45;;;15.15;;
6580;SDS011;3324;50.796;7.228;2022-07-23T13:01:05;17.10;;;15.70;;
6580;SDS011;3324;50.796;7.228;2022-07-23T13:06:09;16.20;;;15.00;;
6580;SDS011;3324;50.796;7.228;2022-07-23T13:08:37;15.82;;;14.73;;
6580;SDS011;3324;50.796;7.228;2022-07-23T13:11:05;16.80;;;15.40;;
6580;SDS011;3324;50.796;7.228;2022-07-23T13:13:32;16.70;;;15.50;;
6580;SDS011;3324;50.796;7.228;2022-07-23T13:15:59;17.45;;;16.10;;
6580;SDS011;3324;50.796;7.228;2022-07-23T13:18:27;17.60;;;16.20;;
6580;SDS011;3324;50.796;7.228;2022-07-23T13:20:53;17.50;;;16.10;;
6580;SDS011;3324;50.796;7.228;2022-07-23T13:23:19;19.30;;;17.30;;
6580;SDS011;3324;50.796;7.228;2022-07-23T13:25:45;18.10;;;16.60;;
6580;SDS011;3324;50.796;7.228;2022-07-23T13:28:12;17.42;;;16.02;;
6580;SDS011;3324;50.796;7.228;2022-07-23T13:30:39;18.20;;;16.70;;
6580;SDS011;3324;50.796;7.228;2022-07-23T13:33:06;17.50;;;16.10;;
6580;SDS011;3324;50.796;7.228;2022-07-23T13:35:33;17.00;;;15.70;;
6580;SDS011;3324;50.796;7.228;2022-07-23T13:38:00;18.58;;;16.70;;
6580;SDS011;3324;50.796;7.228;2022-07-23T13:40:27;18.10;;;16.50;;
6580;SDS011;3324;50.796;7.228;2022-07-23T13:42:53;16.60;;;15.40;;
6580;SDS011;3324;50.796;7.228;2022-07-23T13:45:19;16.80;;;15.50;;
6580;SDS011;3324;50.796;7.228;2022-07-23T13:47:44;17.40;;;15.90;;
6580;SDS011;3324;50.796;7.228;2022-07-23T13:50:10;16.80;;;15.50;;
6580;SDS011;3324;50.796;7.228;2022-07-23T13:52:36;16.20;;;15.00;;
6580;SDS011;3324;50.796;7.228;2022-07-23T13:55:02;16.80;;;15.50;;
6580;SDS011;3324;50.796;7.228;2022-07-23T13:57:30;16.80;;;15.50;;
6580;SDS011;3324;50.796;7.228;2022-07-23T13:59:56;18.30;;;16.40;;
6580;SDS011;3324;50.796;7.228;2022-07-23T14:02:21;16.50;;;15.30;;
6580;SDS011;3324;50.796;7.228;2022-07-23T14:04:47;17.00;;;15.70;;
6580;SDS011;3324;50.796;7.228;2022-07-23T14:07:14;17.80;;;16.30;;
6580;SDS011;3324;50.796;7.228;2022-07-23T14:09:40;18.50;;;16.70;;
6580;SDS011;3324;50.796;7.228;2022-07-23T14:12:05;17.60;;;16.20;;
6580;SDS011;3324;50.796;7.228;2022-07-23T14:14:31;17.20;;;15.90;;
6580;SDS011;3324;50.796;7.228;2022-07-23T14:16:57;17.50;;;16.00;;
6580;SDS011;3324;50.796;7.228;2022-07-23T14:19:23;16.57;;;15.33;;
6580;SDS011;3324;50.796;7.228;2022-07-23T14:21:49;17.30;;;16.00;;
6580;SDS011;3324;50.796;7.228;2022-07-23T14:24:15;17.80;;;16.40;;
6580;SDS011;3324;50.796;7.228;2022-07-23T14:26:41;17.95;;;16.55;;
6580;SDS011;3324;50.796;7.228;2022-07-23T14:29:07;16.63;;;15.43;;
6580;SDS011;3324;50.796;7.228;2022-07-23T14:31:32;18.20;;;16.60;;
6580;SDS011;3324;50.796;7.228;2022-07-23T14:33:58;17.10;;;15.80;;
6580;SDS011;3324;50.796;7.228;2022-07-23T14:36:24;16.90;;;15.60;;
6580;SDS011;3324;50.796;7.228;2022-07-23T14:38:51;17.30;;;15.80;;
6580;SDS011;3324;50.796;7.228;2022-07-23T14:41:16;16.40;;;15.20;;
6580;SDS011;3324;50.796;7.228;2022-07-23T14:43:42;16.47;;;15.27;;
6580;SDS011;3324;50.796;7.228;2022-07-23T14:46:08;16.30;;;15.10;;
6580;SDS011;3324;50.796;7.228;2022-07-23T14:51:01;16.00;;;14.90;;
6580;SDS011;3324;50.796;7.228;2022-07-23T14:53:26;15.40;;;14.40;;
6580;SDS011;3324;50.796;7.228;2022-07-23T14:55:52;16.90;;;15.50;;
6580;SDS011;3324;50.796;7.228;2022-07-23T14:58:18;16.00;;;14.90;;
6580;SDS011;3324;50.796;7.228;2022-07-23T15:00:43;15.70;;;14.68;;
6580;SDS011;3324;50.796;7.228;2022-07-23T15:05:34;15.00;;;14.00;;
6580;SDS011;3324;50.796;7.228;2022-07-23T15:10:25;18.80;;;17.40;;
6580;SDS011;3324;50.796;7.228;2022-07-23T15:12:51;15.73;;;14.63;;
6580;SDS011;3324;50.796;7.228;2022-07-23T15:15:17;17.00;;;15.60;;
6580;SDS011;3324;50.796;7.228;2022-07-23T15:17:42;15.70;;;14.60;;
6580;SDS011;3324;50.796;7.228;2022-07-23T15:20:08;16.42;;;15.02;;
6580;SDS011;3324;50.796;7.228;2022-07-23T15:22:34;16.50;;;14.90;;
6580;SDS011;3324;50.796;7.228;2022-07-23T15:25:00;14.80;;;13.80;;
6580;SDS011;3324;50.796;7.228;2022-07-23T15:27:26;14.90;;;13.90;;
6580;SDS011;3324;50.796;7.228;2022-07-23T15:29:52;15.50;;;14.30;;
6580;SDS011;3324;50.796;7.228;2022-07-23T15:32:18;14.80;;;13.80;;
6580;SDS011;3324;50.796;7.228;2022-07-23T15:34:43;15.40;;;14.30;;
6580;SDS011;3324;50.796;7.228;2022-07-23T15:37:09;15.73;;;14.53;;
6580;SDS011;3324;50.796;7.228;2022-07-23T15:39:35;15.10;;;14.10;;
6580;SDS011;3324;50.796;7.228;2022-07-23T15:42:01;14.70;;;13.70;;
6580;SDS011;3324;50.796;7.228;2022-07-23T15:44:28;16.10;;;14.80;;
6580;SDS011;3324;50.796;7.228;2022-07-23T15:46:54;16.40;;;14.80;;
6580;SDS011;3324;50.796;7.228;2022-07-23T15:49:20;15.50;;;14.40;;
6580;SDS011;3324;50.796;7.228;2022-07-23T15:51:46;14.60;;;13.70;;
6580;SDS011;3324;50.796;7.228;2022-07-23T15:54:12;14.60;;;13.70;;
6580;SDS011;3324;50.796;7.228;2022-07-23T15:56:38;15.85;;;14.65;;